sensor_id;sensor_type;location;lat;lon;timestamp;temperature;humidity
55036;DHT22;40936;53.008;6.556;2022-11-10T00:00:33;14.40;99.90
55036;DHT22;40936;53.008;6.556;2022-11-10T00:03:03;14.50;99.90
55036;DHT22;40936;53.008;6.556;2022-11-10T00:05:30;14.50;99.90
55036;DHT22;40936;53.008;6.556;2022-11-10T00:07:59;14.60;99.90
55036;DHT22;40936;53.008;6.556;2022-11-10T00:10:26;14.50;99.90
55036;DHT22;40936;53.008;6.556;2022-11-10T00:12:51;14.40;99.90
55036;DHT22;40936;53.008;6.556;2022-11-10T00:15:18;14.60;99.90
55036;DHT22;40936;53.008;6.556;2022-11-10T00:18:03;14.60;99.90
55036;DHT22;40936;53.008;6.556;2022-11-10T00:20:29;14.40;99.90
55036;DHT22;40936;53.008;6.556;2022-11-10T00:22:54;14.40;99.90
55036;DHT22;40936;53.008;6.556;2022-11-10T00:25:21;14.50;99.90
55036;DHT22;40936;53.008;6.556;2022-11-10T00:27:47;14.40;99.90
55036;DHT22;40936;53.008;6.556;2022-11-10T00:30:13;14.50;99.90
55036;DHT22;40936;53.008;6.556;2022-11-10T00:32:39;14.40;99.90
55036;DHT22;40936;53.008;6.556;2022-11-10T00:35:05;14.40;99.90
55036;DHT22;40936;53.008;6.556;2022-11-10T00:37:32;14.50;99.90
55036;DHT22;40936;53.008;6.556;2022-11-10T00:39:58;14.40;99.90
55036;DHT22;40936;53.008;6.556;2022-11-10T00:42:24;14.50;99.90
55036;DHT22;40936;53.008;6.556;2022-11-10T00:44:49;14.40;99.90
55036;DHT22;40936;53.008;6.556;2022-11-10T00:47:15;14.70;99.90
55036;DHT22;40936;53.008;6.556;2022-11-10T00:49:41;14.40;99.90
55036;DHT22;40936;53.008;6.556;2022-11-10T00:52:06;14.40;99.90
55036;DHT22;40936;53.008;6.556;2022-11-10T00:54:32;14.50;99.90
55036;DHT22;40936;53.008;6.556;2022-11-10T00:56:58;14.40;99.90
55036;DHT22;40936;53.008;6.556;2022-11-10T00:59:23;14.80;99.90
55036;DHT22;40936;53.008;6.556;2022-11-10T01:01:49;14.40;99.90
55036;DHT22;40936;53.008;6.556;2022-11-10T01:04:15;14.40;99.90
55036;DHT22;40936;53.008;6.556;2022-11-10T01:06:40;14.50;99.90
55036;DHT22;40936;53.008;6.556;2022-11-10T01:09:06;14.40;99.90
55036;DHT22;40936;53.008;6.556;2022-11-10T01:11:31;14.50;99.90
55036;DHT22;40936;53.008;6.556;2022-11-10T01:13:57;14.50;99.90
55036;DHT22;40936;53.008;6.556;2022-11-10T01:16:30;14.50;99.90
55036;DHT22;40936;53.008;6.556;2022-11-10T01:18:58;14.40;99.90
55036;DHT22;40936;53.008;6.556;2022-11-10T01:21:24;14.50;99.90
55036;DHT22;40936;53.008;6.556;2022-11-10T01:23:50;14.50;99.90
55036;DHT22;40936;53.008;6.556;2022-11-10T01:26:16;14.60;99.90
55036;DHT22;40936;53.008;6.556;2022-11-10T01:28:43;14.30;99.90
55036;DHT22;40936;53.008;6.556;2022-11-10T01:31:18;14.30;99.90
55036;DHT22;40936;53.008;6.556;2022-11-10T01:33:44;14.30;99.90
55036;DHT22;40936;53.008;6.556;2022-11-10T01:36:10;14.30;99.90
55036;DHT22;40936;53.008;6.556;2022-11-10T01:38:39;14.30;99.90
55036;DHT22;40936;53.008;6.556;2022-11-10T01:41:06;14.30;99.90
55036;DHT22;40936;53.008;6.556;2022-11-10T01:43:33;14.50;99.90
55036;DHT22;40936;53.008;6.556;2022-11-10T01:46:04;14.40;99.90
55036;DHT22;40936;53.008;6.556;2022-11-10T01:51:30;14.30;99.90
55036;DHT22;40936;53.008;6.556;2022-11-10T01:54:08;15.40;99.90
55036;DHT22;40936;53.008;6.556;2022-11-10T01:56:38;14.40;99.90
55036;DHT22;40936;53.008;6.556;2022-11-10T01:59:12;14.30;99.90
55036;DHT22;40936;53.008;6.556;2022-11-10T02:01:38;14.40;99.90
55036;DHT22;40936;53.008;6.556;2022-11-10T02:04:10;14.30;99.90
55036;DHT22;40936;53.008;6.556;2022-11-10T02:06:40;14.30;99.90
55036;DHT22;40936;53.008;6.556;2022-11-10T02:09:06;14.20;99.90
55036;DHT22;40936;53.008;6.556;2022-11-10T02:11:33;14.20;99.90
55036;DHT22;40936;53.008;6.556;2022-11-10T02:14:00;14.40;99.90
55036;DHT22;40936;53.008;6.556;2022-11-10T02:16:26;14.30;99.90
55036;DHT22;40936;53.008;6.556;2022-11-10T02:18:52;14.40;99.90
55036;DHT22;40936;53.008;6.556;2022-11-10T02:21:19;14.50;99.90
55036;DHT22;40936;53.008;6.556;2022-11-10T02:23:46;14.40;99.90
55036;DHT22;40936;53.008;6.556;2022-11-10T02:26:14;14.30;99.90
55036;DHT22;40936;53.008;6.556;2022-11-10T02:28:40;14.40;99.90
55036;DHT22;40936;53.008;6.556;2022-11-10T02:31:06;14.50;99.90
55036;DHT22;40936;53.008;6.556;2022-11-10T02:33:34;14.40;99.90
55036;DHT22;40936;53.008;6.556;2022-11-10T02:36:00;14.50;99.90
55036;DHT22;40936;53.008;6.556;2022-11-10T02:38:26;14.50;99.90
55036;DHT22;40936;53.008;6.556;2022-11-10T02:40:51;14.50;99.90
55036;DHT22;40936;53.008;6.556;2022-11-10T02:43:18;14.50;99.90
55036;DHT22;40936;53.008;6.556;2022-11-10T02:45:44;14.60;99.90
55036;DHT22;40936;53.008;6.556;2022-11-10T02:48:11;14.60;99.90
55036;DHT22;40936;53.008;6.556;2022-11-10T02:50:37;14.60;99.90
55036;DHT22;40936;53.008;6.556;2022-11-10T02:53:03;14.50;99.90
55036;DHT22;40936;53.008;6.556;2022-11-10T02:55:29;14.60;99.90
55036;DHT22;40936;53.008;6.556;2022-11-10T02:57:55;14.50;99.90
55036;DHT22;40936;53.008;6.556;2022-11-10T03:00:21;14.60;99.90
55036;DHT22;40936;53.008;6.556;2022-11-10T03:02:47;14.70;99.90
55036;DHT22;40936;53.008;6.556;2022-11-10T03:05:13;14.70;99.90
55036;DHT22;40936;53.008;6.556;2022-11-10T03:07:39;14.70;99.90
55036;DHT22;40936;53.008;6.556;2022-11-10T03:10:05;14.80;99.90
55036;DHT22;40936;53.008;6.556;2022-11-10T03:12:31;14.80;99.90
55036;DHT22;40936;53.008;6.556;2022-11-10T03:14:57;14.70;99.90
55036;DHT22;40936;53.008;6.556;2022-11-10T03:17:23;14.80;99.90
55036;DHT22;40936;53.008;6.556;2022-11-10T03:19:48;14.90;99.90
55036;DHT22;40936;53.008;6.556;2022-11-10T03:22:14;14.70;99.90
55036;DHT22;40936;53.008;6.556;2022-11-10T03:24:40;14.60;99.90
55036;DHT22;40936;53.008;6.556;2022-11-10T03:27:06;14.70;99.90
55036;DHT22;40936;53.008;6.556;2022-11-10T03:29:32;14.60;99.90
55036;DHT22;40936;53.008;6.556;2022-11-10T03:31:57;14.70;99.90
55036;DHT22;40936;53.008;6.556;2022-11-10T03:34:23;14.70;99.90
55036;DHT22;40936;53.008;6.556;2022-11-10T03:36:49;14.70;99.90
55036;DHT22;40936;53.008;6.556;2022-11-10T03:39:15;14.60;99.90
55036;DHT22;40936;53.008;6.556;2022-11-10T03:41:40;14.60;99.90
55036;DHT22;40936;53.008;6.556;2022-11-10T03:44:06;14.60;99.90
55036;DHT22;40936;53.008;6.556;2022-11-10T03:46:32;14.60;99.90
55036;DHT22;40936;53.008;6.556;2022-11-10T03:48:58;14.60;99.90
55036;DHT22;40936;53.008;6.556;2022-11-10T03:51:23;14.70;99.90
55036;DHT22;40936;53.008;6.556;2022-11-10T03:53:49;14.60;99.90
55036;DHT22;40936;53.008;6.556;2022-11-10T03:56:15;14.60;99.90
55036;DHT22;40936;53.008;6.556;2022-11-10T03:58:41;14.70;99.90
55036;DHT22;40936;53.008;6.556;2022-11-10T04:01:07;15.40;99.90
55036;DHT22;40936;53.008;6.556;2022-11-10T04:03:33;14.70;99.90
55036;DHT22;40936;53.008;6.556;2022-11-10T04:05:58;14.80;99.90
55036;DHT22;40936;53.008;6.556;2022-11-10T04:08:43;14.70;99.90
55036;DHT22;40936;53.008;6.556;2022-11-10T04:11:24;15.30;99.90
55036;DHT22;40936;53.008;6.556;2022-11-10T04:14:09;14.80;99.90
55036;DHT22;40936;53.008;6.556;2022-11-10T04:16:53;14.70;99.90
55036;DHT22;40936;53.008;6.556;2022-11-10T04:19:19;14.90;99.90
55036;DHT22;40936;53.008;6.556;2022-11-10T04:21:45;14.90;99.90
55036;DHT22;40936;53.008;6.556;2022-11-10T04:24:10;14.80;99.90
55036;DHT22;40936;53.008;6.556;2022-11-10T04:26:36;15.00;99.90
55036;DHT22;40936;53.008;6.556;2022-11-10T04:29:08;14.80;99.90
55036;DHT22;40936;53.008;6.556;2022-11-10T04:31:36;14.80;99.90
55036;DHT22;40936;53.008;6.556;2022-11-10T04:34:03;14.90;99.90
55036;DHT22;40936;53.008;6.556;2022-11-10T04:36:30;15.00;99.90
55036;DHT22;40936;53.008;6.556;2022-11-10T04:38:56;15.00;99.90
55036;DHT22;40936;53.008;6.556;2022-11-10T04:41:23;15.00;99.90
55036;DHT22;40936;53.008;6.556;2022-11-10T04:43:49;14.90;99.90
55036;DHT22;40936;53.008;6.556;2022-11-10T04:48:56;15.10;99.90
55036;DHT22;40936;53.008;6.556;2022-11-10T04:51:25;15.00;99.90
55036;DHT22;40936;53.008;6.556;2022-11-10T04:53:51;15.20;99.90
55036;DHT22;40936;53.008;6.556;2022-11-10T04:56:20;15.10;99.90
55036;DHT22;40936;53.008;6.556;2022-11-10T04:58:47;15.00;99.90
55036;DHT22;40936;53.008;6.556;2022-11-10T05:01:16;15.20;99.90
55036;DHT22;40936;53.008;6.556;2022-11-10T05:03:42;15.20;99.90
55036;DHT22;40936;53.008;6.556;2022-11-10T05:06:08;15.10;99.90
55036;DHT22;40936;53.008;6.556;2022-11-10T05:08:35;15.10;99.90
55036;DHT22;40936;53.008;6.556;2022-11-10T05:11:00;15.10;99.90
55036;DHT22;40936;53.008;6.556;2022-11-10T05:13:26;15.10;99.90
55036;DHT22;40936;53.008;6.556;2022-11-10T05:15:52;15.10;99.90
55036;DHT22;40936;53.008;6.556;2022-11-10T05:18:18;15.20;99.90
55036;DHT22;40936;53.008;6.556;2022-11-10T05:20:44;15.00;99.90
55036;DHT22;40936;53.008;6.556;2022-11-10T05:23:09;15.10;99.90
55036;DHT22;40936;53.008;6.556;2022-11-10T05:25:53;15.10;99.90
55036;DHT22;40936;53.008;6.556;2022-11-10T05:28:19;15.20;99.90
55036;DHT22;40936;53.008;6.556;2022-11-10T05:30:44;15.40;99.90
55036;DHT22;40936;53.008;6.556;2022-11-10T05:33:10;16.60;99.90
55036;DHT22;40936;53.008;6.556;2022-11-10T05:35:36;15.20;99.90
55036;DHT22;40936;53.008;6.556;2022-11-10T05:38:03;15.10;99.90
55036;DHT22;40936;53.008;6.556;2022-11-10T05:40:31;15.10;99.90
55036;DHT22;40936;53.008;6.556;2022-11-10T05:42:57;16.50;99.90
55036;DHT22;40936;53.008;6.556;2022-11-10T05:45:26;15.10;99.90
55036;DHT22;40936;53.008;6.556;2022-11-10T05:47:53;15.20;99.90
55036;DHT22;40936;53.008;6.556;2022-11-10T05:50:20;15.20;99.90
55036;DHT22;40936;53.008;6.556;2022-11-10T05:52:48;15.30;99.90
55036;DHT22;40936;53.008;6.556;2022-11-10T05:55:15;15.20;99.90
55036;DHT22;40936;53.008;6.556;2022-11-10T05:57:43;15.40;99.90
55036;DHT22;40936;53.008;6.556;2022-11-10T06:00:09;15.30;99.90
55036;DHT22;40936;53.008;6.556;2022-11-10T06:02:35;15.40;99.90
55036;DHT22;40936;53.008;6.556;2022-11-10T06:05:01;15.40;99.90
55036;DHT22;40936;53.008;6.556;2022-11-10T06:07:27;15.30;99.90
55036;DHT22;40936;53.008;6.556;2022-11-10T06:09:53;15.40;99.90
55036;DHT22;40936;53.008;6.556;2022-11-10T06:12:19;15.40;99.90
55036;DHT22;40936;53.008;6.556;2022-11-10T06:14:45;15.30;99.90
55036;DHT22;40936;53.008;6.556;2022-11-10T06:17:10;15.40;99.90
55036;DHT22;40936;53.008;6.556;2022-11-10T06:19:36;15.30;99.90
55036;DHT22;40936;53.008;6.556;2022-11-10T06:22:01;15.30;99.90
55036;DHT22;40936;53.008;6.556;2022-11-10T06:24:27;16.50;99.90
55036;DHT22;40936;53.008;6.556;2022-11-10T06:26:53;15.30;99.90
55036;DHT22;40936;53.008;6.556;2022-11-10T06:29:18;15.40;99.90
55036;DHT22;40936;53.008;6.556;2022-11-10T06:31:44;15.40;99.90
55036;DHT22;40936;53.008;6.556;2022-11-10T06:34:10;15.30;99.90
55036;DHT22;40936;53.008;6.556;2022-11-10T06:36:35;15.30;99.90
55036;DHT22;40936;53.008;6.556;2022-11-10T06:39:02;15.40;99.90
55036;DHT22;40936;53.008;6.556;2022-11-10T06:41:28;15.40;99.90
55036;DHT22;40936;53.008;6.556;2022-11-10T06:43:54;15.70;99.90
55036;DHT22;40936;53.008;6.556;2022-11-10T06:46:20;15.40;99.90
55036;DHT22;40936;53.008;6.556;2022-11-10T06:48:46;15.40;99.90
55036;DHT22;40936;53.008;6.556;2022-11-10T06:51:12;15.30;99.90
55036;DHT22;40936;53.008;6.556;2022-11-10T06:53:37;15.40;99.90
55036;DHT22;40936;53.008;6.556;2022-11-10T06:56:03;15.30;99.90
55036;DHT22;40936;53.008;6.556;2022-11-10T06:58:29;15.30;99.90
55036;DHT22;40936;53.008;6.556;2022-11-10T07:00:58;14.30;99.90
55036;DHT22;40936;53.008;6.556;2022-11-10T07:03:25;15.40;99.90
55036;DHT22;40936;53.008;6.556;2022-11-10T07:05:50;15.40;99.90
55036;DHT22;40936;53.008;6.556;2022-11-10T07:08:16;15.40;99.90
55036;DHT22;40936;53.008;6.556;2022-11-10T07:10:43;15.30;99.90
55036;DHT22;40936;53.008;6.556;2022-11-10T07:13:10;15.40;99.90
55036;DHT22;40936;53.008;6.556;2022-11-10T07:15:36;15.40;99.90
55036;DHT22;40936;53.008;6.556;2022-11-10T07:18:02;15.50;99.90
55036;DHT22;40936;53.008;6.556;2022-11-10T07:20:29;15.40;99.90
55036;DHT22;40936;53.008;6.556;2022-11-10T07:23:00;15.40;99.90
55036;DHT22;40936;53.008;6.556;2022-11-10T07:25:27;15.50;99.90
55036;DHT22;40936;53.008;6.556;2022-11-10T07:27:55;15.60;99.90
55036;DHT22;40936;53.008;6.556;2022-11-10T07:30:21;15.60;99.90
55036;DHT22;40936;53.008;6.556;2022-11-10T07:32:55;15.50;99.90
55036;DHT22;40936;53.008;6.556;2022-11-10T07:35:21;15.60;99.90
55036;DHT22;40936;53.008;6.556;2022-11-10T07:37:47;15.40;99.90
55036;DHT22;40936;53.008;6.556;2022-11-10T07:40:12;15.50;99.90
55036;DHT22;40936;53.008;6.556;2022-11-10T07:42:39;15.50;99.90
55036;DHT22;40936;53.008;6.556;2022-11-10T07:45:05;15.40;99.90
55036;DHT22;40936;53.008;6.556;2022-11-10T07:47:31;15.40;99.90
55036;DHT22;40936;53.008;6.556;2022-11-10T07:49:57;15.50;99.90
55036;DHT22;40936;53.008;6.556;2022-11-10T07:52:22;15.60;99.90
55036;DHT22;40936;53.008;6.556;2022-11-10T07:54:48;15.50;99.90
55036;DHT22;40936;53.008;6.556;2022-11-10T07:57:14;15.60;99.90
55036;DHT22;40936;53.008;6.556;2022-11-10T07:59:40;15.60;99.90
55036;DHT22;40936;53.008;6.556;2022-11-10T08:02:11;15.50;99.90
55036;DHT22;40936;53.008;6.556;2022-11-10T08:04:36;15.60;99.90
55036;DHT22;40936;53.008;6.556;2022-11-10T08:07:02;15.50;99.90
55036;DHT22;40936;53.008;6.556;2022-11-10T08:09:28;15.60;99.90
55036;DHT22;40936;53.008;6.556;2022-11-10T08:11:54;15.50;99.90
55036;DHT22;40936;53.008;6.556;2022-11-10T08:14:20;15.50;99.90
55036;DHT22;40936;53.008;6.556;2022-11-10T08:16:45;15.40;99.90
55036;DHT22;40936;53.008;6.556;2022-11-10T08:19:11;15.40;99.90
55036;DHT22;40936;53.008;6.556;2022-11-10T08:21:37;15.40;99.90
55036;DHT22;40936;53.008;6.556;2022-11-10T08:24:03;15.50;99.90
55036;DHT22;40936;53.008;6.556;2022-11-10T08:26:28;15.60;99.90
55036;DHT22;40936;53.008;6.556;2022-11-10T08:28:54;15.50;99.90
55036;DHT22;40936;53.008;6.556;2022-11-10T08:31:20;15.70;99.90
55036;DHT22;40936;53.008;6.556;2022-11-10T08:33:45;15.80;99.90
55036;DHT22;40936;53.008;6.556;2022-11-10T08:36:11;15.80;99.90
55036;DHT22;40936;53.008;6.556;2022-11-10T08:38:37;15.90;99.90
55036;DHT22;40936;53.008;6.556;2022-11-10T08:41:03;16.00;99.90
55036;DHT22;40936;53.008;6.556;2022-11-10T08:43:28;16.20;99.90
55036;DHT22;40936;53.008;6.556;2022-11-10T08:45:55;16.30;99.90
55036;DHT22;40936;53.008;6.556;2022-11-10T08:48:23;16.30;99.90
55036;DHT22;40936;53.008;6.556;2022-11-10T08:50:49;16.30;99.90
55036;DHT22;40936;53.008;6.556;2022-11-10T08:53:21;16.50;99.90
55036;DHT22;40936;53.008;6.556;2022-11-10T08:55:48;16.30;99.90
55036;DHT22;40936;53.008;6.556;2022-11-10T08:58:20;16.30;99.90
55036;DHT22;40936;53.008;6.556;2022-11-10T09:00:46;16.30;99.90
55036;DHT22;40936;53.008;6.556;2022-11-10T09:03:21;16.30;99.90
55036;DHT22;40936;53.008;6.556;2022-11-10T09:05:49;16.20;99.90
55036;DHT22;40936;53.008;6.556;2022-11-10T09:08:15;16.20;99.90
55036;DHT22;40936;53.008;6.556;2022-11-10T09:10:46;16.30;99.90
55036;DHT22;40936;53.008;6.556;2022-11-10T09:13:14;16.30;99.90
55036;DHT22;40936;53.008;6.556;2022-11-10T09:15:41;16.30;99.90
55036;DHT22;40936;53.008;6.556;2022-11-10T09:18:08;16.40;99.90
55036;DHT22;40936;53.008;6.556;2022-11-10T09:20:35;16.40;99.90
55036;DHT22;40936;53.008;6.556;2022-11-10T09:23:06;16.40;99.90
55036;DHT22;40936;53.008;6.556;2022-11-10T09:25:32;16.60;99.90
55036;DHT22;40936;53.008;6.556;2022-11-10T09:27:57;16.60;79.40
55036;DHT22;40936;53.008;6.556;2022-11-10T09:30:23;16.60;99.90
55036;DHT22;40936;53.008;6.556;2022-11-10T09:32:54;16.60;1.00
55036;DHT22;40936;53.008;6.556;2022-11-10T09:35:21;16.70;1.00
55036;DHT22;40936;53.008;6.556;2022-11-10T09:37:47;16.70;99.90
55036;DHT22;40936;53.008;6.556;2022-11-10T09:40:20;16.70;99.90
55036;DHT22;40936;53.008;6.556;2022-11-10T09:42:46;16.80;99.90
55036;DHT22;40936;53.008;6.556;2022-11-10T09:47:55;17.10;1.00
55036;DHT22;40936;53.008;6.556;2022-11-10T09:50:48;17.10;99.90
55036;DHT22;40936;53.008;6.556;2022-11-10T09:53:20;17.20;99.90
55036;DHT22;40936;53.008;6.556;2022-11-10T09:56:05;17.30;99.90
55036;DHT22;40936;53.008;6.556;2022-11-10T09:58:38;17.40;95.00
55036;DHT22;40936;53.008;6.556;2022-11-10T10:03:47;17.50;98.40
55036;DHT22;40936;53.008;6.556;2022-11-10T10:06:16;17.60;26.60
55036;DHT22;40936;53.008;6.556;2022-11-10T10:19:44;18.00;1.00
55036;DHT22;40936;53.008;6.556;2022-11-10T10:25:10;18.00;1.00
55036;DHT22;40936;53.008;6.556;2022-11-10T10:27:37;17.90;99.90
55036;DHT22;40936;53.008;6.556;2022-11-10T10:30:15;17.90;99.90
55036;DHT22;40936;53.008;6.556;2022-11-10T10:32:41;18.00;99.90
55036;DHT22;40936;53.008;6.556;2022-11-10T10:35:12;17.90;99.90
55036;DHT22;40936;53.008;6.556;2022-11-10T10:37:43;17.90;99.90
55036;DHT22;40936;53.008;6.556;2022-11-10T10:40:20;17.90;99.90
55036;DHT22;40936;53.008;6.556;2022-11-10T10:42:46;17.90;99.90
55036;DHT22;40936;53.008;6.556;2022-11-10T10:45:24;18.00;99.90
55036;DHT22;40936;53.008;6.556;2022-11-10T10:47:52;18.00;99.90
55036;DHT22;40936;53.008;6.556;2022-11-10T10:55:32;18.10;69.80
55036;DHT22;40936;53.008;6.556;2022-11-10T10:58:04;18.10;99.90
55036;DHT22;40936;53.008;6.556;2022-11-10T11:00:30;18.20;99.90
55036;DHT22;40936;53.008;6.556;2022-11-10T11:03:04;18.20;30.20
55036;DHT22;40936;53.008;6.556;2022-11-10T11:05:31;18.20;28.50
55036;DHT22;40936;53.008;6.556;2022-11-10T11:08:01;18.30;8.30
55036;DHT22;40936;53.008;6.556;2022-11-10T11:10:32;18.20;9.70
55036;DHT22;40936;53.008;6.556;2022-11-10T11:13:19;18.10;1.00
55036;DHT22;40936;53.008;6.556;2022-11-10T11:16:05;18.00;16.90
55036;DHT22;40936;53.008;6.556;2022-11-10T11:18:34;17.90;95.90
55036;DHT22;40936;53.008;6.556;2022-11-10T11:21:29;17.90;96.90
55036;DHT22;40936;53.008;6.556;2022-11-10T11:27:03;17.80;99.90
55036;DHT22;40936;53.008;6.556;2022-11-10T11:36:19;18.00;75.80
55036;DHT22;40936;53.008;6.556;2022-11-10T11:47:34;18.00;73.30
55036;DHT22;40936;53.008;6.556;2022-11-10T12:09:10;18.20;1.00
55036;DHT22;40936;53.008;6.556;2022-11-10T12:16:43;18.10;1.00
55036;DHT22;40936;53.008;6.556;2022-11-10T12:24:59;18.00;22.50
55036;DHT22;40936;53.008;6.556;2022-11-10T12:27:39;17.90;11.60
55036;DHT22;40936;53.008;6.556;2022-11-10T12:30:13;17.90;1.00
55036;DHT22;40936;53.008;6.556;2022-11-10T12:32:56;17.90;1.00
55036;DHT22;40936;53.008;6.556;2022-11-10T12:35:49;17.90;1.00
55036;DHT22;40936;53.008;6.556;2022-11-10T12:38:22;17.80;1.00
55036;DHT22;40936;53.008;6.556;2022-11-10T12:41:02;17.80;2.70
55036;DHT22;40936;53.008;6.556;2022-11-10T12:43:38;17.80;1.00
55036;DHT22;40936;53.008;6.556;2022-11-10T12:46:08;17.80;7.80
55036;DHT22;40936;53.008;6.556;2022-11-10T12:51:50;17.70;26.50
55036;DHT22;40936;53.008;6.556;2022-11-10T12:54:19;17.80;1.00
55036;DHT22;40936;53.008;6.556;2022-11-10T12:56:50;17.80;11.70
55036;DHT22;40936;53.008;6.556;2022-11-10T13:01:49;17.90;1.00
55036;DHT22;40936;53.008;6.556;2022-11-10T13:04:17;18.00;1.00
55036;DHT22;40936;53.008;6.556;2022-11-10T13:07:02;17.90;1.00
55036;DHT22;40936;53.008;6.556;2022-11-10T13:09:34;18.00;1.00
55036;DHT22;40936;53.008;6.556;2022-11-10T13:14:35;18.00;1.00
55036;DHT22;40936;53.008;6.556;2022-11-10T13:17:01;18.00;1.00
55036;DHT22;40936;53.008;6.556;2022-11-10T13:24:33;18.00;1.00
55036;DHT22;40936;53.008;6.556;2022-11-10T13:27:49;18.00;1.00
55036;DHT22;40936;53.008;6.556;2022-11-10T13:29:58;18.00;1.00
55036;DHT22;40936;53.008;6.556;2022-11-10T13:32:29;18.00;1.00
55036;DHT22;40936;53.008;6.556;2022-11-10T13:35:57;18.00;1.00
55036;DHT22;40936;53.008;6.556;2022-11-10T13:38:07;17.90;1.00
55036;DHT22;40936;53.008;6.556;2022-11-10T13:40:43;17.90;1.00
55036;DHT22;40936;53.008;6.556;2022-11-10T13:43:21;17.80;1.00
55036;DHT22;40936;53.008;6.556;2022-11-10T13:45:48;17.80;1.00
55036;DHT22;40936;53.008;6.556;2022-11-10T13:48:57;17.90;1.00
55036;DHT22;40936;53.008;6.556;2022-11-10T13:51:44;17.90;1.00
55036;DHT22;40936;53.008;6.556;2022-11-10T13:59:48;17.90;1.00
55036;DHT22;40936;53.008;6.556;2022-11-10T14:05:08;18.00;1.00
55036;DHT22;40936;53.008;6.556;2022-11-10T14:08:03;17.90;1.00
55036;DHT22;40936;53.008;6.556;2022-11-10T14:11:13;17.90;1.00
55036;DHT22;40936;53.008;6.556;2022-11-10T14:14:28;18.00;1.00
55036;DHT22;40936;53.008;6.556;2022-11-10T14:16:39;18.00;1.00
55036;DHT22;40936;53.008;6.556;2022-11-10T14:19:20;17.90;1.00
55036;DHT22;40936;53.008;6.556;2022-11-10T14:21:58;17.90;1.00
55036;DHT22;40936;53.008;6.556;2022-11-10T14:24:28;17.90;1.00
55036;DHT22;40936;53.008;6.556;2022-11-10T14:27:10;17.90;1.00
55036;DHT22;40936;53.008;6.556;2022-11-10T14:29:38;17.90;1.00
55036;DHT22;40936;53.008;6.556;2022-11-10T14:32:13;17.90;1.00
55036;DHT22;40936;53.008;6.556;2022-11-10T14:34:49;18.00;1.00
55036;DHT22;40936;53.008;6.556;2022-11-10T14:37:20;17.90;1.00
55036;DHT22;40936;53.008;6.556;2022-11-10T14:39:49;18.00;1.00
55036;DHT22;40936;53.008;6.556;2022-11-10T14:42:21;18.00;1.00
55036;DHT22;40936;53.008;6.556;2022-11-10T14:44:47;18.00;1.00
55036;DHT22;40936;53.008;6.556;2022-11-10T14:47:14;18.00;1.00
55036;DHT22;40936;53.008;6.556;2022-11-10T14:49:40;18.00;1.00
55036;DHT22;40936;53.008;6.556;2022-11-10T14:52:10;18.00;1.00
55036;DHT22;40936;53.008;6.556;2022-11-10T14:54:37;18.00;1.00
55036;DHT22;40936;53.008;6.556;2022-11-10T14:57:04;18.00;1.00
55036;DHT22;40936;53.008;6.556;2022-11-10T14:59:30;18.00;1.00
55036;DHT22;40936;53.008;6.556;2022-11-10T15:01:58;18.00;1.00
55036;DHT22;40936;53.008;6.556;2022-11-10T15:04:28;17.90;1.00
55036;DHT22;40936;53.008;6.556;2022-11-10T15:06:55;17.90;1.00
55036;DHT22;40936;53.008;6.556;2022-11-10T15:09:31;17.90;1.00
55036;DHT22;40936;53.008;6.556;2022-11-10T15:14:41;17.80;1.00
55036;DHT22;40936;53.008;6.556;2022-11-10T15:17:14;17.70;1.00
55036;DHT22;40936;53.008;6.556;2022-11-10T15:24:44;17.50;6.30
55036;DHT22;40936;53.008;6.556;2022-11-10T15:27:26;17.50;34.40
55036;DHT22;40936;53.008;6.556;2022-11-10T15:29:55;17.40;27.30
55036;DHT22;40936;53.008;6.556;2022-11-10T15:32:23;17.40;20.50
55036;DHT22;40936;53.008;6.556;2022-11-10T15:34:52;17.50;1.00
55036;DHT22;40936;53.008;6.556;2022-11-10T15:37:30;17.50;9.50
55036;DHT22;40936;53.008;6.556;2022-11-10T15:40:49;17.50;1.00
55036;DHT22;40936;53.008;6.556;2022-11-10T15:45:49;17.40;1.00
55036;DHT22;40936;53.008;6.556;2022-11-10T15:48:17;17.40;1.00
55036;DHT22;40936;53.008;6.556;2022-11-10T15:50:49;17.40;20.30
55036;DHT22;40936;53.008;6.556;2022-11-10T15:53:17;17.30;41.20
55036;DHT22;40936;53.008;6.556;2022-11-10T15:55:45;17.40;29.50
55036;DHT22;40936;53.008;6.556;2022-11-10T15:58:19;17.40;15.80
55036;DHT22;40936;53.008;6.556;2022-11-10T16:00:45;17.40;18.20
55036;DHT22;40936;53.008;6.556;2022-11-10T16:03:12;17.40;8.50
55036;DHT22;40936;53.008;6.556;2022-11-10T16:05:39;17.40;49.40
55036;DHT22;40936;53.008;6.556;2022-11-10T16:08:32;17.40;5.60
55036;DHT22;40936;53.008;6.556;2022-11-10T16:10:59;17.40;20.60
55036;DHT22;40936;53.008;6.556;2022-11-10T16:13:28;17.40;1.00
55036;DHT22;40936;53.008;6.556;2022-11-10T16:15:55;17.40;1.00
55036;DHT22;40936;53.008;6.556;2022-11-10T16:18:24;17.50;1.00
55036;DHT22;40936;53.008;6.556;2022-11-10T16:20:50;17.40;1.00
55036;DHT22;40936;53.008;6.556;2022-11-10T16:23:17;17.40;1.00
55036;DHT22;40936;53.008;6.556;2022-11-10T16:25:44;17.40;1.00
55036;DHT22;40936;53.008;6.556;2022-11-10T16:28:12;17.50;1.00
55036;DHT22;40936;53.008;6.556;2022-11-10T16:30:39;17.50;1.00
55036;DHT22;40936;53.008;6.556;2022-11-10T16:33:13;17.50;1.00
55036;DHT22;40936;53.008;6.556;2022-11-10T16:35:39;17.50;1.00
55036;DHT22;40936;53.008;6.556;2022-11-10T16:38:17;17.40;1.00
55036;DHT22;40936;53.008;6.556;2022-11-10T16:40:44;17.40;1.00
55036;DHT22;40936;53.008;6.556;2022-11-10T16:43:17;17.40;1.00
55036;DHT22;40936;53.008;6.556;2022-11-10T16:45:44;17.40;1.00
55036;DHT22;40936;53.008;6.556;2022-11-10T16:48:14;17.40;1.00
55036;DHT22;40936;53.008;6.556;2022-11-10T16:50:43;17.30;1.00
55036;DHT22;40936;53.008;6.556;2022-11-10T16:53:14;17.40;1.00
55036;DHT22;40936;53.008;6.556;2022-11-10T16:55:42;17.30;1.00
55036;DHT22;40936;53.008;6.556;2022-11-10T16:58:07;17.30;1.00
55036;DHT22;40936;53.008;6.556;2022-11-10T17:00:34;17.30;1.00
55036;DHT22;40936;53.008;6.556;2022-11-10T17:03:28;17.30;1.00
55036;DHT22;40936;53.008;6.556;2022-11-10T17:05:51;17.30;1.00
55036;DHT22;40936;53.008;6.556;2022-11-10T17:08:23;17.30;1.00
55036;DHT22;40936;53.008;6.556;2022-11-10T17:10:49;17.30;1.00
55036;DHT22;40936;53.008;6.556;2022-11-10T17:13:15;17.20;1.00
55036;DHT22;40936;53.008;6.556;2022-11-10T17:15:42;17.30;1.00
55036;DHT22;40936;53.008;6.556;2022-11-10T17:18:11;17.30;1.00
55036;DHT22;40936;53.008;6.556;2022-11-10T17:20:44;17.30;1.00
55036;DHT22;40936;53.008;6.556;2022-11-10T17:23:13;17.30;1.00
55036;DHT22;40936;53.008;6.556;2022-11-10T17:25:40;17.30;1.00
55036;DHT22;40936;53.008;6.556;2022-11-10T17:28:14;17.20;1.00
55036;DHT22;40936;53.008;6.556;2022-11-10T17:30:41;17.30;1.00
55036;DHT22;40936;53.008;6.556;2022-11-10T17:33:08;17.30;1.00
55036;DHT22;40936;53.008;6.556;2022-11-10T17:35:48;17.30;1.00
55036;DHT22;40936;53.008;6.556;2022-11-10T17:38:21;17.20;1.00